KHBG/HBG METAR and TAF weather

Enter ICAO airport designator
Station Type Date Time Source
KHBG METAR 2022/08/12 13:53 UTC NOAA

KHBG 121353Z AUTO 13004KT 7SM OVC002 24/23 A3005 RMK AO2 SLP172 T02390233


Station Type Date Time Source
KHBG Decoded METAR 2022/08/12 13:53 UTC NOAA

HATTIESBURG CHAIN MUNICIPAL, MS, United States (KHBG) 31-16N 89-15W 44M
Aug 12, 2022 - 09:53 AM EDT / 2022.08.12 1353 UTC
Wind: from the SE (130 degrees) at 5 MPH (4 KT):0
Visibility: 7 mile(s):0
Sky conditions: overcast
Temperature: 75.0 F (23.9 C)
Dew Point: 73.9 F (23.3 C)
Relative Humidity: 96%
Pressure (altimeter): 30.05 in. Hg (1017 hPa)
ob: KHBG 121353Z AUTO 13004KT 7SM OVC002 24/23 A3005 RMK AO2 SLP172 T02390233
cycle: 14

Station Type Date Time Source
KHBG TAF 2022/08/12 12:22 UTC NOAA

TAF KHBG 121120Z 1212/1312 00000KT 1/2SM FG VV002
FM121300 00000KT 3SM BR BKN002
FM121400 00000KT P6SM BKN007 OVC015
FM121500 13003KT P6SM OVC025
FM121800 19005KT P6SM BKN050
TEMPO 1220/1224 18015G25KT 4SM TSRA BKN050CB
FM130900 33001KT 2SM BR OVC003

Example: see airport list